Time;durP1;ratioP1;P1;durP2;ratioP2;P2;SDS_P1;SDS_P2;PMS_P1;PMS_P2;Temp;Humidity;BMP_temperature;BMP_pressure;BME280_temperature;BME280_humidity;BME280_pressure;Samples;Min_cycle;Max_cycle;Signal;HPM_P1;HPM_P2
2021/04/28 00:01:50;;;;;;;3.47;3.17;;;8.70;51.00;;;;;;4791808;29;20097;-90
2021/04/28 00:04:16;;;;;;;3.90;3.28;;;8.70;51.20;;;;;;4805743;29;20034;-90
2021/04/28 00:06:43;;;;;;;3.75;3.45;;;8.70;51.30;;;;;;4775199;29;20041;-90
2021/04/28 00:09:09;;;;;;;4.32;3.95;;;8.60;51.40;;;;;;4804727;29;20038;-91
2021/04/28 00:11:35;;;;;;;4.00;3.70;;;8.60;51.40;;;;;;4759903;29;20109;-92
2021/04/28 00:14:04;;;;;;;4.00;3.70;;;8.60;51.50;;;;;;4777216;29;20107;-90
2021/04/28 00:16:32;;;;;;;3.60;3.30;;;8.60;51.40;;;;;;4792034;29;20055;-90
2021/04/28 00:18:58;;;;;;;3.80;3.50;;;8.60;51.50;;;;;;4788534;29;20227;-90
2021/04/28 00:21:24;;;;;;;4.05;3.63;;;8.60;51.50;;;;;;4789979;29;20052;-90
2021/04/28 00:23:51;;;;;;;3.40;3.10;;;8.60;51.40;;;;;;4774161;29;20041;-90
2021/04/28 00:26:17;;;;;;;2.47;2.28;;;8.60;51.20;;;;;;4819270;29;20045;-91
2021/04/28 00:28:43;;;;;;;2.00;1.90;;;8.70;50.90;;;;;;4790960;29;20516;-90
2021/04/28 00:31:10;;;;;;;3.15;2.90;;;8.70;50.50;;;;;;4803945;29;20532;-89
2021/04/28 00:33:36;;;;;;;;;;;8.70;50.40;;;;;;4775935;29;20545;-91
2021/04/28 00:36:04;;;;;;;3.35;3.08;;;8.80;50.20;;;;;;4820231;29;20052;-93
2021/04/28 00:38:30;;;;;;;4.55;3.08;;;8.80;51.10;;;;;;4789720;29;20037;-91
2021/04/28 00:40:56;;;;;;;3.38;3.08;;;8.80;49.90;;;;;;4807493;29;20050;-91
2021/04/28 00:43:23;;;;;;;3.58;3.30;;;8.70;51.00;;;;;;4825804;29;20045;-90
2021/04/28 00:45:50;;;;;;;3.60;3.30;;;8.70;49.90;;;;;;4790074;29;20048;-91
2021/04/28 00:48:17;;;;;;;6.47;3.63;;;8.70;50.00;;;;;;4760312;29;20033;-90
2021/04/28 00:50:45;;;;;;;3.13;2.83;;;8.70;50.10;;;;;;4807419;29;20109;-91
2021/04/28 00:53:15;;;;;;;2.60;2.45;;;8.70;50.10;;;;;;4809514;29;20063;-90
2021/04/28 00:55:41;;;;;;;4.22;3.17;;;8.70;50.30;;;;;;4781012;29;20037;-89
2021/04/28 00:58:08;;;;;;;3.70;3.40;;;8.60;51.60;;;;;;4798522;29;20052;-90
2021/04/28 01:00:34;;;;;;;6.13;3.40;;;8.60;50.50;;;;;;4831531;29;20049;-89
2021/04/28 01:03:01;;;;;;;3.60;3.30;;;8.60;50.60;;;;;;4798694;29;20048;-90
2021/04/28 01:05:27;;;;;;;5.38;3.70;;;8.60;50.60;;;;;;4812764;29;20037;-91
2021/04/28 01:07:54;;;;;;;3.50;3.03;;;8.60;50.60;;;;;;4798354;29;20113;-88
2021/04/28 01:10:29;;;;;;;4.10;3.72;;;8.60;50.50;;;;;;4804875;29;20044;-90
2021/04/28 01:12:55;;;;;;;3.75;3.33;;;8.50;50.50;;;;;;4789292;29;20037;-89
2021/04/28 01:15:28;;;;;;;4.95;3.55;;;8.50;50.60;;;;;;4788537;29;20033;-90
2021/04/28 01:17:55;;;;;;;3.50;3.30;;;8.50;50.70;;;;;;4773372;29;20406;-91
2021/04/28 01:20:23;;;;;;;4.30;3.90;;;8.40;50.60;;;;;;4788111;29;20045;-90
2021/04/28 01:22:50;;;;;;;4.00;3.67;;;8.40;50.60;;;;;;4802737;29;20041;-89
2021/04/28 01:25:18;;;;;;;3.80;3.20;;;8.50;50.70;;;;;;4803091;29;20037;-91
2021/04/28 01:28:14;;;;;;;3.85;3.50;;;8.40;50.50;;;;;;4762869;29;20111;-92
2021/04/28 01:31:08;;;;;;;4.90;3.55;;;8.50;50.30;;;;;;4803677;29;20041;-90
2021/04/28 01:33:41;;;;;;;3.97;3.53;;;8.50;50.00;;;;;;4781122;29;20045;-91
2021/04/28 01:36:27;;;;;;;2.78;2.55;;;8.50;49.60;;;;;;4778061;29;20105;-90
2021/04/28 01:38:58;;;;;;;3.88;3.33;;;8.60;49.50;;;;;;4807931;29;20056;-89
2021/04/28 01:41:26;;;;;;;3.80;3.50;;;8.60;49.30;;;;;;4815712;29;20143;-90
2021/04/28 01:43:52;;;;;;;3.65;3.35;;;8.60;49.10;;;;;;4809655;29;20025;-89
2021/04/28 01:46:20;;;;;;;4.40;3.60;;;8.70;49.20;;;;;;4786152;29;20037;-91
2021/04/28 01:48:46;;;;;;;3.92;3.55;;;8.70;48.90;;;;;;4779743;29;20113;-92
2021/04/28 01:51:13;;;;;;;5.07;4.25;;;8.70;48.90;;;;;;4907391;24;20719;-91
2021/04/28 01:53:40;;;;;;;4.68;3.53;;;8.80;48.70;;;;;;4825966;29;20101;-90
2021/04/28 01:56:06;;;;;;;4.50;3.33;;;8.90;48.60;;;;;;4840530;29;20029;-91
2021/04/28 01:58:41;;;;;;;2.67;2.35;;;9.00;48.40;;;;;;4826723;29;20037;-90
2021/04/28 02:01:11;;;;;;;3.63;3.13;;;9.10;48.00;;;;;;4813684;29;20030;-85
2021/04/28 02:03:39;;;;;;;4.00;3.05;;;9.20;47.80;;;;;;4809128;29;20052;-91
2021/04/28 02:06:09;;;;;;;3.65;2.90;;;9.20;47.60;;;;;;4838227;29;20061;-90
2021/04/28 02:08:38;;;;;;;6.40;3.55;;;9.30;47.20;;;;;;4795359;29;20117;-92
2021/04/28 02:11:05;;;;;;;3.97;3.10;;;9.40;47.20;;;;;;4852131;29;20133;-89
2021/04/28 02:13:40;;;;;;;7.55;4.25;;;9.40;47.20;;;;;;4841502;29;20046;-89
2021/04/28 02:16:07;;;;;;;4.00;3.00;;;9.40;47.00;;;;;;4825727;29;20043;-91
2021/04/28 02:18:33;;;;;;;4.63;3.35;;;9.50;47.10;;;;;;4809218;29;20081;-91
2021/04/28 02:21:03;;;;;;;3.50;3.20;;;9.50;47.30;;;;;;4797407;29;20113;-89
2021/04/28 02:23:34;;;;;;;5.63;3.50;;;9.50;47.30;;;;;;4788744;29;20033;-90
2021/04/28 02:26:00;;;;;;;3.85;3.47;;;9.50;47.20;;;;;;4807627;29;20044;-93
2021/04/28 02:28:27;;;;;;;4.88;3.47;;;9.60;47.20;;;;;;4782203;29;20105;-93
2021/04/28 02:30:53;;;;;;;3.85;3.53;;;9.60;47.30;;;;;;4797065;29;20046;-93
2021/04/28 02:33:20;;;;;;;3.75;3.42;;;9.70;47.10;;;;;;4777853;29;20446;-92
2021/04/28 02:35:46;;;;;;;5.53;3.78;;;9.70;46.90;;;;;;4787635;29;20049;-92
2021/04/28 02:38:18;;;;;;;5.28;3.28;;;9.70;47.00;;;;;;4817559;29;20034;-91
2021/04/28 02:40:45;;;;;;;3.80;3.47;;;9.80;46.80;;;;;;4804497;29;20056;-89
2021/04/28 02:43:14;;;;;;;3.15;2.85;;;9.80;46.70;;;;;;4808310;29;20108;-90
2021/04/28 02:45:44;;;;;;;3.53;3.22;;;9.90;46.70;;;;;;4791199;29;20042;-88
2021/04/28 02:48:11;;;;;;;4.10;3.20;;;9.90;46.30;;;;;;4826327;29;20034;-91
2021/04/28 02:50:38;;;;;;;4.25;3.58;;;9.90;46.20;;;;;;4797294;29;20034;-92
2021/04/28 02:53:13;;;;;;;5.55;3.60;;;10.00;46.20;;;;;;4782597;29;20494;-91
2021/04/28 02:55:40;;;;;;;8.88;6.43;;;10.00;45.90;;;;;;4799992;29;20061;-90
2021/04/28 02:58:06;;;;;;;5.70;3.72;;;10.10;45.70;;;;;;4806850;29;20034;-91
2021/04/28 03:00:33;;;;;;;2.65;2.35;;;10.20;45.80;;;;;;4796617;29;20049;-90
2021/04/28 03:03:00;;;;;;;2.80;2.30;;;10.20;45.40;;;;;;4800142;29;20050;-88
2021/04/28 03:05:26;;;;;;;3.17;2.88;;;10.30;45.40;;;;;;4799243;29;20030;-91
2021/04/28 03:07:56;;;;;;;4.47;3.03;;;10.40;46.50;;;;;;4786315;29;20061;-90
2021/04/28 03:10:23;;;;;;;4.43;3.20;;;10.50;45.60;;;;;;4807355;29;20099;-91
2021/04/28 03:12:49;;;;;;;2.65;2.45;;;10.60;45.00;;;;;;4805464;29;20034;-93
2021/04/28 03:15:18;;;;;;;3.40;3.10;;;10.60;44.50;;;;;;4801497;29;20052;-92
2021/04/28 03:17:44;;;;;;;4.35;3.30;;;10.50;44.50;;;;;;4794263;29;20045;-94
2021/04/28 03:20:14;;;;;;;4.82;3.80;;;10.50;44.80;;;;;;4828129;29;20536;-92
2021/04/28 03:22:44;;;;;;;5.53;3.30;;;10.60;45.70;;;;;;4798723;29;20129;-94
2021/04/28 03:25:13;;;;;;;2.70;2.50;;;10.90;45.60;;;;;;4797264;29;20057;-92
2021/04/28 03:27:40;;;;;;;5.22;2.95;;;11.40;44.90;;;;;;4805600;29;20041;-90
2021/04/28 03:30:30;;;;;;;3.83;3.15;;;11.80;44.10;;;;;;4811530;29;20101;-91
2021/04/28 03:32:58;;;;;;;4.25;3.45;;;12.20;42.90;;;;;;4799606;29;20057;-91
2021/04/28 03:35:24;;;;;;;4.25;3.13;;;12.50;41.30;;;;;;4801381;29;20045;-89
2021/04/28 03:37:50;;;;;;;4.45;3.00;;;12.60;40.30;;;;;;4820293;29;20045;-95
2021/04/28 03:40:17;;;;;;;4.95;3.20;;;12.50;40.00;;;;;;4802414;29;20375;-94
2021/04/28 03:42:44;;;;;;;3.58;2.72;;;12.50;40.20;;;;;;4800490;29;20442;-92
2021/04/28 03:45:11;;;;;;;5.82;3.33;;;12.60;40.30;;;;;;4786565;29;20042;-91
2021/04/28 03:47:37;;;;;;;7.47;4.13;;;12.80;40.10;;;;;;4783976;29;20034;-92
2021/04/28 03:50:33;;;;;;;4.05;2.90;;;13.00;40.20;;;;;;4786012;29;20110;-94
2021/04/28 03:53:26;;;;;;;5.30;3.38;;;13.40;39.40;;;;;;4854260;24;20076;-92
2021/04/28 03:56:15;;;;;;;7.47;3.05;;;13.80;38.00;;;;;;4807079;29;20089;-93
2021/04/28 03:58:58;;;;;;;10.18;3.10;;;14.10;37.20;;;;;;4801797;29;20048;-95
2021/04/28 04:01:25;;;;;;;3.42;3.13;;;14.40;36.80;;;;;;4808790;29;20037;-92
2021/04/28 04:03:51;;;;;;;10.85;3.65;;;14.80;35.80;;;;;;4792639;29;20033;-88
2021/04/28 04:06:19;;;;;;;8.80;4.00;;;15.00;34.70;;;;;;4809020;29;20060;-94
2021/04/28 04:08:45;;;;;;;4.10;3.70;;;15.20;34.20;;;;;;4795716;29;20064;-92
2021/04/28 04:11:12;;;;;;;6.80;3.33;;;15.30;33.40;;;;;;4792607;29;20041;-92
2021/04/28 04:13:38;;;;;;;5.00;3.47;;;15.60;33.40;;;;;;4831639;29;20037;-94
2021/04/28 04:16:05;;;;;;;2.42;2.22;;;15.90;32.30;;;;;;4831595;29;20021;-94
2021/04/28 04:18:40;;;;;;;6.38;3.72;;;16.20;31.90;;;;;;4794995;29;20069;-95
2021/04/28 04:23:42;;;;;;;3.78;3.45;;;16.50;31.20;;;;;;4878805;24;20049;-93
2021/04/28 04:26:08;;;;;;;;;;;16.70;30.40;;;;;;4783308;29;20562;-96
2021/04/28 04:28:35;;;;;;;7.63;3.40;;;16.90;29.90;;;;;;4804214;29;19932;-94
2021/04/28 04:31:01;;;;;;;7.57;2.92;;;17.10;29.00;;;;;;4812414;29;20037;-94
2021/04/28 04:33:28;;;;;;;1.83;1.73;;;17.10;28.90;;;;;;4810333;29;20064;-94
2021/04/28 04:35:56;;;;;;;2.78;2.58;;;17.30;29.10;;;;;;4816074;29;20034;-93
2021/04/28 04:38:23;;;;;;;2.90;2.70;;;17.30;28.70;;;;;;4813128;29;20129;-92
2021/04/28 04:40:49;;;;;;;4.38;3.17;;;17.10;28.40;;;;;;4817304;29;20041;-91
2021/04/28 04:43:16;;;;;;;;;;;16.90;28.10;;;;;;4782331;29;20120;-89
2021/04/28 04:45:42;;;;;;;5.57;2.88;;;16.90;28.70;;;;;;4779862;29;19932;-91
2021/04/28 04:48:10;;;;;;;8.23;3.67;;;17.30;28.60;;;;;;4815789;29;20033;-87
2021/04/28 04:50:36;;;;;;;5.05;3.40;;;18.00;28.30;;;;;;4788621;29;20041;-89
2021/04/28 04:53:04;;;;;;;;;;;18.40;27.20;;;;;;4774359;29;20109;-89
2021/04/28 04:55:30;;;;;;;8.60;3.40;;;18.50;26.20;;;;;;4808403;29;19932;-90
2021/04/28 04:57:57;;;;;;;1.90;1.80;;;18.30;26.40;;;;;;4805643;29;20038;-89
2021/04/28 05:00:23;;;;;;;4.90;3.03;;;18.10;26.70;;;;;;4802900;29;20042;-88
2021/04/28 05:02:50;;;;;;;;;;;17.90;26.70;;;;;;4782053;29;20080;-90
2021/04/28 05:05:17;;;;;;;3.28;2.90;;;17.80;27.20;;;;;;4791957;29;20003;-88
2021/04/28 05:07:45;;;;;;;5.53;3.40;;;17.90;26.90;;;;;;4795099;29;20064;-94
2021/04/28 05:10:12;;;;;;;3.97;3.10;;;18.30;26.90;;;;;;4779925;29;20591;-93
2021/04/28 05:12:39;;;;;;;9.02;3.50;;;18.60;25.80;;;;;;4795171;29;20109;-95
2021/04/28 05:15:06;;;;;;;4.20;3.00;;;18.70;25.80;;;;;;4803049;29;20465;-92
2021/04/28 05:17:33;;;;;;;2.63;2.42;;;18.80;25.50;;;;;;4775530;29;20120;-90
2021/04/28 05:20:00;;;;;;;4.10;2.55;;;19.20;24.80;;;;;;4778133;29;20037;-91
2021/04/28 05:22:27;;;;;;;4.88;2.92;;;19.90;24.50;;;;;;4774475;29;20053;-90
2021/04/28 05:24:54;;;;;;;;;;;20.60;23.20;;;;;;4800279;29;20506;-89
2021/04/28 05:27:20;;;;;;;3.92;2.80;;;21.20;22.80;;;;;;4804821;29;19932;-90
2021/04/28 05:29:47;;;;;;;1.48;1.38;;;21.80;22.20;;;;;;4803124;29;20038;-94
2021/04/28 05:32:13;;;;;;;4.82;2.72;;;22.40;21.00;;;;;;4808648;29;20048;-89
2021/04/28 05:34:39;;;;;;;6.63;3.10;;;22.70;20.20;;;;;;4761744;29;20053;-90
2021/04/28 05:37:06;;;;;;;3.47;2.90;;;23.20;20.00;;;;;;4798636;29;20035;-89
2021/04/28 05:39:32;;;;;;;6.18;2.40;;;23.80;19.70;;;;;;4775468;29;20049;-89
2021/04/28 05:41:58;;;;;;;4.80;2.40;;;24.30;18.60;;;;;;4802709;29;20053;-89
2021/04/28 05:44:25;;;;;;;;;;;24.60;18.10;;;;;;4760246;29;20050;-89
2021/04/28 05:46:51;;;;;;;5.30;3.13;;;25.00;17.70;;;;;;4787006;29;20003;-93
2021/04/28 05:49:17;;;;;;;;;;;25.40;17.60;;;;;;4805295;29;20869;-90
2021/04/28 05:51:44;;;;;;;9.90;3.50;;;25.70;16.20;;;;;;4801350;29;20028;-91
2021/04/28 05:54:10;;;;;;;;;;;25.90;16.10;;;;;;4787596;29;20049;-90
2021/04/28 05:56:40;;;;;;;4.53;2.40;;;26.20;16.00;;;;;;4801719;29;19929;-90
2021/04/28 05:59:06;;;;;;;4.22;2.20;;;26.40;15.40;;;;;;4796959;29;20068;-93
2021/04/28 06:01:32;;;;;;;4.72;2.47;;;26.70;15.20;;;;;;4770426;29;20066;-92
2021/04/28 06:03:59;;;;;;;3.95;2.40;;;26.70;15.30;;;;;;4768462;29;20042;-92
2021/04/28 06:06:26;;;;;;;3.67;2.33;;;27.10;14.90;;;;;;4783632;29;20057;-90
2021/04/28 06:08:52;;;;;;;;;;;27.40;14.10;;;;;;4774260;29;20203;-90
2021/04/28 06:11:18;;;;;;;4.53;2.67;;;27.60;14.20;;;;;;4812176;29;20437;-91
2021/04/28 06:13:46;;;;;;;;;;;27.80;13.50;;;;;;4784323;29;20113;-94
2021/04/28 06:16:14;;;;;;;7.22;2.60;;;28.00;13.50;;;;;;4806899;29;19933;-92
2021/04/28 06:18:42;;;;;;;2.67;2.33;;;28.40;13.60;;;;;;4810805;29;20071;-90
2021/04/28 06:21:09;;;;;;;4.70;2.53;;;28.80;12.90;;;;;;4813050;29;20129;-91
2021/04/28 06:23:36;;;;;;;6.57;2.33;;;29.00;12.60;;;;;;4784484;29;20053;-92
2021/04/28 06:26:03;;;;;;;5.00;2.38;;;29.00;12.20;;;;;;4803361;29;20049;-91
2021/04/28 06:28:30;;;;;;;5.13;2.35;;;29.00;12.80;;;;;;4780590;29;20054;-92
2021/04/28 06:30:56;;;;;;;7.30;2.47;;;29.30;12.30;;;;;;4764260;29;20058;-90
2021/04/28 06:33:22;;;;;;;;;;;29.40;12.00;;;;;;4792070;29;20117;-90
2021/04/28 06:35:48;;;;;;;7.82;2.65;;;29.50;12.40;;;;;;4811366;29;19933;-92
2021/04/28 06:38:14;;;;;;;;;;;29.60;11.70;;;;;;4807369;29;20545;-89
2021/04/28 06:40:41;;;;;;;9.73;2.70;;;29.40;11.80;;;;;;4793356;29;19959;-88
2021/04/28 06:43:08;;;;;;;4.10;2.10;;;29.40;11.50;;;;;;4791186;29;20602;-90
2021/04/28 06:45:35;;;;;;;4.43;2.15;;;29.30;11.60;;;;;;4755018;29;20042;-90
2021/04/28 06:48:03;;;;;;;3.03;2.20;;;29.50;11.50;;;;;;4770913;29;20038;-91
2021/04/28 06:50:29;;;;;;;13.48;2.80;;;29.60;11.30;;;;;;4774867;29;20175;-92
2021/04/28 06:52:55;;;;;;;;;;;29.40;11.10;;;;;;4790721;29;20154;-89
2021/04/28 06:55:22;;;;;;;8.70;2.83;;;29.30;11.50;;;;;;4783033;29;19932;-93
2021/04/28 06:57:55;;;;;;;10.45;2.13;;;29.40;11.50;;;;;;4760813;29;20433;-91
2021/04/28 07:00:23;;;;;;;2.22;1.42;;;29.60;11.80;;;;;;4780552;29;20046;-90
2021/04/28 07:02:50;;;;;;;4.10;1.58;;;29.80;10.90;;;;;;4794074;29;20037;-90
2021/04/28 07:05:16;;;;;;;12.55;2.90;;;29.70;10.80;;;;;;4785399;29;20514;-91
2021/04/28 07:07:43;;;;;;;2.38;2.08;;;29.70;10.30;;;;;;4804845;29;20120;-90
2021/04/28 07:10:10;;;;;;;6.50;1.88;;;29.70;10.60;;;;;;4806639;29;20597;-91
2021/04/28 07:12:36;;;;;;;5.25;1.70;;;29.90;10.30;;;;;;4771165;29;20030;-90
2021/04/28 07:15:03;;;;;;;6.40;2.20;;;30.40;10.50;;;;;;4792179;29;20062;-90
2021/04/28 07:17:30;;;;;;;10.30;2.15;;;31.20;9.90;;;;;;4769185;29;20046;-87
2021/04/28 07:19:56;;;;;;;5.57;1.70;;;31.30;9.20;;;;;;4792032;29;20053;-90
2021/04/28 07:22:22;;;;;;;;;;;31.20;8.70;;;;;;4801906;29;20122;-91
2021/04/28 07:24:49;;;;;;;3.88;1.42;;;31.10;9.60;;;;;;4785677;29;19940;-90
2021/04/28 07:27:16;;;;;;;5.53;2.65;;;31.30;9.00;;;;;;4784658;29;20610;-91
2021/04/28 07:29:43;;;;;;;3.75;1.50;;;31.40;9.50;;;;;;4783820;29;20507;-92
2021/04/28 07:32:09;;;;;;;2.50;1.80;;;31.90;8.80;;;;;;4807514;29;20095;-91
2021/04/28 07:34:35;;;;;;;4.00;1.77;;;32.00;8.50;;;;;;4798642;29;20045;-91
2021/04/28 07:37:03;;;;;;;;;;;32.30;8.50;;;;;;4804457;29;20038;-90
2021/04/28 07:39:29;;;;;;;1.80;1.10;;;31.50;8.30;;;;;;4808456;29;19951;-88
2021/04/28 07:41:55;;;;;;;2.33;1.63;;;31.20;8.80;;;;;;4797493;29;20054;-91
2021/04/28 07:44:24;;;;;;;3.60;1.80;;;31.00;9.10;;;;;;4811276;29;20033;-89
2021/04/28 07:46:54;;;;;;;19.42;2.15;;;31.10;9.20;;;;;;4788468;29;20038;-91
2021/04/28 07:49:20;;;;;;;3.17;1.60;;;31.50;9.10;;;;;;4768944;29;20050;-91
2021/04/28 07:51:46;;;;;;;;;;;31.60;8.70;;;;;;4802769;29;20546;-90
2021/04/28 07:54:13;;;;;;;3.40;1.67;;;31.40;8.50;;;;;;4777854;29;19928;-92
2021/04/28 07:56:39;;;;;;;2.45;2.10;;;31.10;8.30;;;;;;4787821;29;20082;-89
2021/04/28 07:59:05;;;;;;;;;;;30.80;8.50;;;;;;4796227;29;20121;-91
2021/04/28 08:01:34;;;;;;;2.95;1.70;;;30.80;8.50;;;;;;4773775;29;19929;-88
2021/04/28 08:04:01;;;;;;;4.38;1.52;;;30.70;8.40;;;;;;4790732;29;20448;-87
2021/04/28 08:06:27;;;;;;;7.22;1.73;;;30.40;8.50;;;;;;4795755;29;20053;-86
2021/04/28 08:08:53;;;;;;;;;;;30.50;8.70;;;;;;4785567;29;20050;-86
2021/04/28 08:11:20;;;;;;;3.22;1.70;;;30.90;9.00;;;;;;4792125;29;19944;-87
2021/04/28 08:13:47;;;;;;;;;;;32.00;8.70;;;;;;4792598;29;20034;-87
2021/04/28 08:16:16;;;;;;;6.25;2.15;;;33.40;8.30;;;;;;4801840;29;19932;-87
2021/04/28 08:18:43;;;;;;;2.63;1.30;;;34.50;7.00;;;;;;4802898;29;20037;-87
2021/04/28 08:21:09;;;;;;;2.55;1.50;;;34.80;6.10;;;;;;4810441;29;20046;-87
2021/04/28 08:23:41;;;;;;;10.70;1.80;;;34.40;6.40;;;;;;4773352;29;20045;-87
2021/04/28 08:26:08;;;;;;;2.08;1.33;;;34.30;6.50;;;;;;4779132;29;20087;-88
2021/04/28 08:28:43;;;;;;;8.20;2.03;;;34.30;6.70;;;;;;4797114;29;20057;-90
2021/04/28 08:31:14;;;;;;;4.20;2.17;;;34.30;6.20;;;;;;4802756;29;20108;-91
2021/04/28 08:33:41;;;;;;;9.30;2.47;;;34.10;6.50;;;;;;4792095;29;20041;-89
2021/04/28 08:36:07;;;;;;;9.00;2.80;;;34.50;6.80;;;;;;4790196;29;20469;-92
2021/04/28 08:38:36;;;;;;;7.47;2.50;;;35.30;6.70;;;;;;4779428;29;20112;-89
2021/04/28 08:41:05;;;;;;;3.25;2.20;;;36.00;6.00;;;;;;4784817;29;20078;-88
2021/04/28 08:43:31;;;;;;;69.28;4.90;;;36.30;5.70;;;;;;4797150;29;20052;-87
2021/04/28 08:46:00;;;;;;;9.13;2.70;;;36.50;6.40;;;;;;4823844;29;20558;-90
2021/04/28 08:48:26;;;;;;;3.58;1.65;;;35.70;5.10;;;;;;4794602;29;20034;-90
2021/04/28 08:50:52;;;;;;;8.48;2.08;;;35.10;5.80;;;;;;4787820;29;20042;-90
2021/04/28 08:53:19;;;;;;;12.63;2.78;;;35.00;5.60;;;;;;4773736;29;20042;-91
2021/04/28 08:55:45;;;;;;;2.83;2.33;;;35.10;6.10;;;;;;4824401;29;20474;-91
2021/04/28 08:58:12;;;;;;;6.68;1.88;;;34.90;5.80;;;;;;4806144;29;20100;-92
2021/04/28 09:00:39;;;;;;;3.80;1.52;;;34.70;5.90;;;;;;4787760;29;20056;-89
2021/04/28 09:03:05;;;;;;;10.02;3.03;;;33.50;5.80;;;;;;4783817;29;20129;-91
2021/04/28 09:05:33;;;;;;;15.80;3.80;;;32.10;6.80;;;;;;4811675;29;20038;-94
2021/04/28 09:08:00;;;;;;;6.45;4.18;;;30.50;7.50;;;;;;4775738;29;20042;-92
2021/04/28 09:10:28;;;;;;;7.97;4.00;;;29.00;8.50;;;;;;4786354;29;20045;-94
2021/04/28 09:13:00;;;;;;;7.38;3.10;;;28.60;10.50;;;;;;4780621;29;20049;-93
2021/04/28 09:15:42;;;;;;;4.57;3.00;;;29.10;9.60;;;;;;4790996;29;20085;-91
2021/04/28 09:18:19;;;;;;;6.97;3.47;;;29.20;9.20;;;;;;4803882;29;20038;-91
2021/04/28 09:20:50;;;;;;;6.90;4.10;;;28.70;9.20;;;;;;4773956;29;20026;-93
2021/04/28 09:23:19;;;;;;;7.75;3.20;;;28.70;9.50;;;;;;4806040;29;20060;-92
2021/04/28 09:25:50;;;;;;;4.47;2.70;;;29.40;9.50;;;;;;4808896;29;20100;-93
2021/04/28 09:28:32;;;;;;;9.77;3.20;;;29.90;8.50;;;;;;4812228;29;20060;-94
2021/04/28 09:31:07;;;;;;;5.43;3.22;;;30.50;8.80;;;;;;4793593;29;20041;-92
2021/04/28 09:33:54;;;;;;;12.32;3.88;;;30.50;8.10;;;;;;4808457;29;20037;-91
2021/04/28 09:36:40;;;;;;;8.85;2.53;;;30.90;8.60;;;;;;4792184;29;20120;-92
2021/04/28 09:39:10;;;;;;;;;;;31.30;8.10;;;;;;4788622;29;20092;-91
2021/04/28 09:41:45;;;;;;;6.07;1.90;;;31.00;7.70;;;;;;4779660;29;19936;-92
2021/04/28 09:44:23;;;;;;;5.75;2.50;;;30.10;7.90;;;;;;4798615;29;20049;-94
2021/04/28 09:47:08;;;;;;;3.17;2.45;;;28.90;8.50;;;;;;4788778;29;20053;-91
2021/04/28 09:49:47;;;;;;;6.40;2.00;;;27.90;9.10;;;;;;4778924;29;20042;-92
2021/04/28 09:52:22;;;;;;;6.05;2.78;;;27.20;9.90;;;;;;4794691;29;20067;-92
2021/04/28 09:54:52;;;;;;;3.15;2.70;;;27.10;10.50;;;;;;4813375;29;20525;-93
2021/04/28 09:57:32;;;;;;;5.80;3.22;;;27.90;10.50;;;;;;4789753;29;20041;-92
2021/04/28 09:59:59;;;;;;;5.40;3.05;;;27.90;9.50;;;;;;4781555;29;20046;-93
2021/04/28 10:02:30;;;;;;;8.00;3.40;;;27.10;9.80;;;;;;4769159;29;20056;-91
2021/04/28 10:05:27;;;;;;;2.95;2.20;;;26.30;10.40;;;;;;4772904;29;20053;-92
2021/04/28 10:08:20;;;;;;;5.72;2.38;;;25.60;10.90;;;;;;4789740;29;20078;-94
2021/04/28 10:10:51;;;;;;;5.60;2.70;;;25.00;11.30;;;;;;4805456;29;20120;-90
2021/04/28 10:13:17;;;;;;;2.00;1.80;;;24.50;11.80;;;;;;4772246;29;20156;-88
2021/04/28 10:15:44;;;;;;;2.45;2.00;;;24.10;12.00;;;;;;4790991;29;20663;-89
2021/04/28 10:18:12;;;;;;;4.43;2.38;;;23.60;12.40;;;;;;4776762;29;20549;-86
2021/04/28 10:20:42;;;;;;;6.00;2.92;;;23.20;12.90;;;;;;4791575;29;20057;-89
2021/04/28 10:23:20;;;;;;;4.75;3.10;;;22.90;13.50;;;;;;4803714;29;20049;-90
2021/04/28 10:25:50;;;;;;;7.68;5.03;;;22.60;13.60;;;;;;4819749;29;20057;-90
2021/04/28 10:28:19;;;;;;;10.07;4.65;;;22.50;13.60;;;;;;4799676;29;20135;-87
2021/04/28 10:30:59;;;;;;;7.78;4.53;;;22.40;13.90;;;;;;4804399;29;20554;-86
2021/04/28 10:33:34;;;;;;;6.68;4.65;;;22.50;14.20;;;;;;4803323;29;20049;-89
2021/04/28 10:36:08;;;;;;;9.35;3.80;;;22.60;14.20;;;;;;4788586;29;20116;-89
2021/04/28 10:38:36;;;;;;;6.28;3.42;;;22.50;14.10;;;;;;4792214;29;20525;-88
2021/04/28 10:41:08;;;;;;;4.38;2.75;;;22.50;14.10;;;;;;4791792;29;20545;-87
2021/04/28 10:43:45;;;;;;;5.60;2.38;;;22.30;14.40;;;;;;4828984;29;20059;-88
2021/04/28 10:46:23;;;;;;;5.45;2.28;;;22.20;14.50;;;;;;4813727;29;20109;-88
2021/04/28 10:48:55;;;;;;;4.78;2.70;;;22.00;14.30;;;;;;4806095;29;20034;-87
2021/04/28 10:51:41;;;;;;;3.53;2.97;;;21.80;14.70;;;;;;4801768;29;20123;-89
2021/04/28 10:54:29;;;;;;;8.35;2.92;;;21.70;14.90;;;;;;4781912;29;20033;-89
2021/04/28 10:57:15;;;;;;;5.32;2.50;;;21.60;15.00;;;;;;4804257;29;20109;-88
2021/04/28 10:59:52;;;;;;;15.00;3.28;;;21.50;15.20;;;;;;4811880;29;20049;-87
2021/04/28 11:02:22;;;;;;;3.65;2.30;;;21.60;15.10;;;;;;4810542;29;20057;-88
2021/04/28 11:05:05;;;;;;;4.47;1.67;;;21.60;15.00;;;;;;4769989;29;20045;-87
2021/04/28 11:08:11;;;;;;;6.07;1.80;;;21.50;14.90;;;;;;4822666;29;20048;-87
2021/04/28 11:10:49;;;;;;;3.33;2.00;;;21.50;15.00;;;;;;4822602;29;20086;-87
2021/04/28 11:13:21;;;;;;;8.35;1.92;;;21.30;15.00;;;;;;4798400;29;20045;-88
2021/04/28 11:16:12;;;;;;;9.45;2.60;;;21.30;15.10;;;;;;4800730;29;20048;-89
2021/04/28 11:18:47;;;;;;;4.30;2.33;;;21.30;15.10;;;;;;4790692;29;20076;-88
2021/04/28 11:21:39;;;;;;;5.85;1.90;;;21.30;15.20;;;;;;4835369;29;20041;-89
2021/04/28 11:24:15;;;;;;;15.82;2.63;;;21.20;15.00;;;;;;4808112;29;20444;-87
2021/04/28 11:26:52;;;;;;;;;;;21.10;15.00;;;;;;4798346;29;20053;-89
2021/04/28 11:29:32;;;;;;;4.85;2.10;;;21.00;15.20;;;;;;4792544;29;19939;-88
2021/04/28 11:32:19;;;;;;;8.23;1.90;;;20.80;15.40;;;;;;4791666;29;20038;-91
2021/04/28 11:34:51;;;;;;;3.72;1.63;;;20.60;15.50;;;;;;4785658;29;20136;-89
2021/04/28 11:37:33;;;;;;;6.93;1.45;;;20.40;15.70;;;;;;4805700;29;20041;-89
2021/04/28 11:40:01;;;;;;;3.38;1.90;;;20.30;15.90;;;;;;4807078;29;20069;-88
2021/04/28 11:42:35;;;;;;;2.70;1.80;;;20.20;16.10;;;;;;4810758;29;20059;-91
2021/04/28 11:45:08;;;;;;;8.40;2.80;;;20.10;16.20;;;;;;4778218;29;20136;-89
2021/04/28 11:47:37;;;;;;;4.38;1.63;;;20.00;16.40;;;;;;4806274;29;20049;-92
2021/04/28 11:50:07;;;;;;;1.63;1.52;;;20.00;16.60;;;;;;4807530;29;20041;-93
2021/04/28 11:52:42;;;;;;;1.50;1.40;;;19.90;16.70;;;;;;4775128;29;20068;-89
2021/04/28 11:55:23;;;;;;;3.10;1.70;;;19.80;16.90;;;;;;4803553;29;20581;-91
2021/04/28 11:57:56;;;;;;;4.75;1.67;;;19.80;17.00;;;;;;4804349;29;20042;-90
2021/04/28 12:00:34;;;;;;;5.00;1.60;;;19.80;17.10;;;;;;4773648;29;20081;-89
2021/04/28 12:03:06;;;;;;;3.88;1.50;;;19.80;17.20;;;;;;4775521;29;20061;-90
2021/04/28 12:05:33;;;;;;;4.45;1.58;;;19.90;17.20;;;;;;4801991;29;20101;-91
2021/04/28 12:08:09;;;;;;;5.63;1.60;;;19.90;17.10;;;;;;4785976;29;20399;-88
2021/04/28 12:10:36;;;;;;;2.88;1.50;;;19.90;16.90;;;;;;4772937;29;20056;-90
2021/04/28 12:13:21;;;;;;;3.42;1.60;;;19.80;16.90;;;;;;4771833;29;20045;-89
2021/04/28 12:15:54;;;;;;;3.35;1.50;;;19.70;17.00;;;;;;4789846;29;20155;-90
2021/04/28 12:18:33;;;;;;;8.35;1.85;;;19.60;17.20;;;;;;4791649;29;20110;-89
2021/04/28 12:21:01;;;;;;;4.18;1.42;;;19.60;17.40;;;;;;4741891;29;20132;-90
2021/04/28 12:23:31;;;;;;;3.03;1.30;;;19.70;17.50;;;;;;4783098;29;20468;-90
2021/04/28 12:26:10;;;;;;;2.67;1.60;;;19.70;17.40;;;;;;4797277;29;20057;-89
2021/04/28 12:28:50;;;;;;;2.95;1.63;;;19.70;17.40;;;;;;4779178;29;20044;-90
2021/04/28 12:31:49;;;;;;;9.38;1.70;;;19.70;17.60;;;;;;4785797;29;20106;-90
2021/04/28 12:34:21;;;;;;;9.80;1.80;;;19.60;17.90;;;;;;4814196;29;20037;-90
2021/04/28 12:36:54;;;;;;;6.63;1.40;;;19.50;18.10;;;;;;4809238;29;20462;-90
2021/04/28 12:39:29;;;;;;;8.07;2.40;;;19.40;18.30;;;;;;4826900;29;20054;-90
2021/04/28 12:42:11;;;;;;;7.65;2.00;;;19.40;18.50;;;;;;4802227;29;20041;-90
2021/04/28 12:44:41;;;;;;;7.07;1.92;;;19.50;18.60;;;;;;4801843;29;20090;-91
2021/04/28 12:47:10;;;;;;;3.42;1.92;;;19.50;18.70;;;;;;4784863;29;20060;-91
2021/04/28 12:49:37;;;;;;;4.40;1.73;;;19.50;18.70;;;;;;4813473;29;20046;-91
2021/04/28 12:52:16;;;;;;;5.03;1.55;;;19.50;18.90;;;;;;4774647;29;20045;-92
2021/04/28 12:54:48;;;;;;;5.40;2.20;;;19.30;19.00;;;;;;4800160;29;20045;-91
2021/04/28 12:57:25;;;;;;;6.43;2.10;;;19.20;19.20;;;;;;4816561;29;20581;-88
2021/04/28 13:00:15;;;;;;;5.57;1.60;;;19.00;20.40;;;;;;4814102;29;20056;-88
2021/04/28 13:02:45;;;;;;;7.60;1.95;;;18.90;20.50;;;;;;4794117;29;20532;-87
2021/04/28 13:05:30;;;;;;;4.78;1.90;;;18.90;19.60;;;;;;4765862;29;20049;-86
2021/04/28 13:08:27;;;;;;;5.10;1.50;;;18.90;19.60;;;;;;4777877;29;20037;-87
2021/04/28 13:11:32;;;;;;;1.90;1.30;;;18.90;19.50;;;;;;4774429;29;20125;-90
2021/04/28 13:14:02;;;;;;;3.72;1.65;;;18.70;19.60;;;;;;4781895;29;20496;-89
2021/04/28 13:16:53;;;;;;;5.70;2.10;;;18.60;19.90;;;;;;4780535;29;20136;-91